createdAt,value
2022-10-31T00:01:24.497Z,3.63
2022-10-31T00:03:52.975Z,4.10
2022-10-31T00:06:21.234Z,3.50
2022-10-31T00:08:53.725Z,3.47
2022-10-31T00:11:23.903Z,3.50
2022-10-31T00:13:52.332Z,4.25
2022-10-31T00:16:22.270Z,4.32
2022-10-31T00:18:51.482Z,4.35
2022-10-31T00:21:20.018Z,4.28
2022-10-31T00:23:48.772Z,5.10
2022-10-31T00:26:18.059Z,4.47
2022-10-31T00:28:47.857Z,4.60
2022-10-31T00:31:16.614Z,5.05
2022-10-31T00:33:45.380Z,4.60
2022-10-31T00:36:15.206Z,5.07
2022-10-31T00:38:43.546Z,6.05
2022-10-31T00:41:13.353Z,5.75
2022-10-31T00:43:41.617Z,5.22
2022-10-31T00:46:11.221Z,5.68
2022-10-31T00:48:39.559Z,5.97
2022-10-31T00:51:08.454Z,6.47
2022-10-31T00:53:37.173Z,6.05
2022-10-31T00:56:06.362Z,5.75
2022-10-31T00:58:34.618Z,8.23
2022-10-31T01:01:06.043Z,7.25
2022-10-31T01:03:36.150Z,8.15
2022-10-31T01:06:06.848Z,8.45
2022-10-31T01:08:35.700Z,8.52
2022-10-31T01:11:08.134Z,8.85
2022-10-31T01:13:36.857Z,8.88
2022-10-31T01:16:07.162Z,9.10
2022-10-31T01:18:36.901Z,9.20
2022-10-31T01:21:08.014Z,9.63
2022-10-31T01:23:36.674Z,8.63
2022-10-31T01:26:08.238Z,9.35
2022-10-31T01:28:37.827Z,10.63
2022-10-31T01:31:08.384Z,10.00
2022-10-31T01:33:38.976Z,10.98
2022-10-31T01:36:15.518Z,10.32
2022-10-31T01:38:43.748Z,11.18
2022-10-31T01:41:13.300Z,12.20
2022-10-31T01:43:46.586Z,12.50
2022-10-31T01:46:15.694Z,12.45
2022-10-31T01:48:45.312Z,12.63
2022-10-31T01:51:15.954Z,12.40
2022-10-31T01:53:46.152Z,12.88
2022-10-31T01:56:18.686Z,13.93
2022-10-31T01:58:48.539Z,13.50
2022-10-31T02:01:18.342Z,14.52
2022-10-31T02:03:49.750Z,14.07
2022-10-31T02:06:29.637Z,13.93
2022-10-31T02:09:00.405Z,14.63
2022-10-31T02:11:30.552Z,13.95
2022-10-31T02:14:02.631Z,14.85
2022-10-31T02:16:31.271Z,15.32
2022-10-31T02:19:00.971Z,16.02
2022-10-31T02:21:40.214Z,16.77
2022-10-31T02:24:43.066Z,15.02
2022-10-31T02:27:23.692Z,15.52
2022-10-31T02:30:08.249Z,15.25
2022-10-31T02:32:50.983Z,14.90
2022-10-31T02:35:33.727Z,14.70
2022-10-31T02:38:09.444Z,12.68
2022-10-31T02:40:46.579Z,12.25
2022-10-31T02:43:20.740Z,13.73
2022-10-31T02:45:56.647Z,12.93
2022-10-31T02:48:32.512Z,14.43
2022-10-31T02:51:03.712Z,13.52
2022-10-31T02:53:35.509Z,15.23
2022-10-31T02:56:08.943Z,14.65
2022-10-31T02:58:42.348Z,15.50
2022-10-31T03:01:40.413Z,15.25
2022-10-31T03:04:25.151Z,15.07
2022-10-31T03:07:02.529Z,16.02
2022-10-31T03:09:40.142Z,16.23
2022-10-31T03:12:13.070Z,17.35
2022-10-31T03:14:45.303Z,16.65
2022-10-31T03:17:21.285Z,17.65
2022-10-31T03:19:55.393Z,18.20
2022-10-31T03:22:25.848Z,18.98
2022-10-31T03:24:55.804Z,20.70
2022-10-31T03:27:27.693Z,21.45
2022-10-31T03:29:59.537Z,20.90
2022-10-31T03:32:33.434Z,20.98
2022-10-31T03:35:06.714Z,21.65
2022-10-31T03:37:36.261Z,23.30
2022-10-31T03:40:07.187Z,24.30
2022-10-31T03:42:39.489Z,24.50
2022-10-31T03:45:13.558Z,25.75
2022-10-31T03:47:46.288Z,26.70
2022-10-31T03:50:17.522Z,26.33
2022-10-31T03:52:53.885Z,27.35
2022-10-31T03:55:26.464Z,28.58
2022-10-31T03:58:00.406Z,18.95
2022-10-31T04:00:29.402Z,22.08
2022-10-31T04:03:02.622Z,35.85
2022-10-31T04:05:33.365Z,25.70
2022-10-31T04:08:04.286Z,24.92
2022-10-31T04:10:33.688Z,28.17
2022-10-31T04:13:07.831Z,28.25
2022-10-31T04:15:39.091Z,27.88
2022-10-31T04:18:07.988Z,24.70
2022-10-31T04:20:43.289Z,25.08
2022-10-31T04:23:20.204Z,28.65
2022-10-31T04:25:48.550Z,27.35
2022-10-31T04:28:16.906Z,28.90
2022-10-31T04:30:45.471Z,30.38
2022-10-31T04:33:13.894Z,30.83
2022-10-31T04:35:43.948Z,31.25
2022-10-31T04:38:12.418Z,31.75
2022-10-31T04:40:40.621Z,33.00
2022-10-31T04:43:09.123Z,32.33
2022-10-31T04:45:37.450Z,34.13
2022-10-31T04:48:06.194Z,36.63
2022-10-31T04:50:34.593Z,48.75
2022-10-31T04:53:04.235Z,38.30
2022-10-31T04:55:32.529Z,38.53
2022-10-31T04:58:01.216Z,43.08
2022-10-31T05:00:29.766Z,48.80
2022-10-31T05:02:59.898Z,51.85
2022-10-31T05:05:30.422Z,40.67
2022-10-31T05:07:58.880Z,48.33
2022-10-31T05:10:30.513Z,40.08
2022-10-31T05:13:01.771Z,34.78
2022-10-31T05:15:31.032Z,39.60
2022-10-31T05:17:59.856Z,39.40
2022-10-31T05:20:29.665Z,47.88
2022-10-31T05:22:59.462Z,58.72
2022-10-31T05:25:30.762Z,46.65
2022-10-31T05:28:01.577Z,44.33
2022-10-31T05:30:32.655Z,49.75
2022-10-31T05:33:01.629Z,48.03
2022-10-31T05:35:32.776Z,65.00
2022-10-31T05:38:01.291Z,61.60
2022-10-31T05:40:31.085Z,46.03
2022-10-31T05:43:00.551Z,68.72
2022-10-31T05:45:29.132Z,65.93
2022-10-31T05:47:59.786Z,62.58
2022-10-31T05:50:30.243Z,70.32
2022-10-31T05:53:01.088Z,67.45
2022-10-31T05:55:31.280Z,54.40
2022-10-31T05:58:00.108Z,123.55
2022-10-31T06:00:29.330Z,95.07
2022-10-31T06:03:01.697Z,99.75
2022-10-31T06:05:30.600Z,74.22
2022-10-31T06:07:59.779Z,107.55
2022-10-31T06:10:30.230Z,96.93
2022-10-31T06:12:59.209Z,128.25
2022-10-31T06:15:27.672Z,131.18
2022-10-31T06:18:03.509Z,132.00
2022-10-31T06:20:32.576Z,94.78
2022-10-31T06:23:01.352Z,111.68
2022-10-31T06:25:31.309Z,106.28
2022-10-31T06:27:59.643Z,99.70
2022-10-31T06:30:28.128Z,92.30
2022-10-31T06:32:56.503Z,136.02
2022-10-31T06:35:24.842Z,84.63
2022-10-31T06:37:54.212Z,90.80
2022-10-31T06:40:22.579Z,77.22
2022-10-31T06:42:59.757Z,83.68
2022-10-31T06:45:28.411Z,63.05
2022-10-31T06:48:16.039Z,77.30
2022-10-31T06:50:45.743Z,108.90
2022-10-31T06:53:15.199Z,82.20
2022-10-31T06:55:43.935Z,87.13
2022-10-31T06:58:13.708Z,93.80
2022-10-31T07:00:42.137Z,89.63
2022-10-31T07:03:13.090Z,79.82
2022-10-31T07:05:42.335Z,70.55
2022-10-31T07:08:12.373Z,73.80
2022-10-31T07:10:42.359Z,74.93
2022-10-31T07:13:15.146Z,68.40
2022-10-31T07:15:44.621Z,65.57
2022-10-31T07:18:14.545Z,59.13
2022-10-31T07:20:42.790Z,59.75
2022-10-31T07:23:12.614Z,58.85
2022-10-31T07:25:41.457Z,61.60
2022-10-31T07:28:10.063Z,61.97
2022-10-31T07:30:40.239Z,62.38
2022-10-31T07:33:08.741Z,60.60
2022-10-31T07:35:37.084Z,57.80
2022-10-31T07:38:12.820Z,57.47
2022-10-31T07:51:46.512Z,50.55
2022-10-31T07:58:01.202Z,51.17
2022-10-31T08:00:30.644Z,52.95
2022-10-31T08:03:01.954Z,53.33
2022-10-31T08:05:30.907Z,51.38
2022-10-31T08:10:31.703Z,46.33
2022-10-31T08:13:03.587Z,47.80
2022-10-31T08:15:32.339Z,45.92
2022-10-31T08:18:00.782Z,50.30
2022-10-31T08:20:29.279Z,49.92
2022-10-31T08:23:01.064Z,48.63
2022-10-31T08:25:35.436Z,49.30
2022-10-31T08:28:07.626Z,50.20
2022-10-31T08:30:38.237Z,49.17
2022-10-31T08:33:08.771Z,48.08
2022-10-31T08:35:36.939Z,48.10
2022-10-31T08:38:05.368Z,47.17
2022-10-31T08:40:36.119Z,46.80
2022-10-31T08:43:07.948Z,47.65
2022-10-31T08:45:36.825Z,46.13
2022-10-31T08:48:07.030Z,44.42
2022-10-31T08:50:37.161Z,42.58
2022-10-31T08:53:06.879Z,45.03
2022-10-31T08:55:38.928Z,45.90
2022-10-31T08:58:09.734Z,45.03
2022-10-31T09:00:38.466Z,49.63
2022-10-31T09:03:08.400Z,49.65
2022-10-31T09:05:36.845Z,48.78
2022-10-31T09:08:07.370Z,49.30
2022-10-31T09:10:40.158Z,43.55
2022-10-31T09:13:11.415Z,46.38
2022-10-31T09:15:42.136Z,46.85
2022-10-31T09:18:11.911Z,46.50
2022-10-31T09:20:41.521Z,43.63
2022-10-31T09:23:12.315Z,47.88
2022-10-31T09:25:47.720Z,43.63
2022-10-31T09:28:20.795Z,43.33
2022-10-31T09:30:49.903Z,43.65
2022-10-31T09:33:18.817Z,41.35
2022-10-31T09:35:47.338Z,36.78
2022-10-31T09:38:20.124Z,41.92
2022-10-31T09:40:57.794Z,40.80
2022-10-31T09:43:34.297Z,39.72
2022-10-31T09:46:10.033Z,38.20
2022-10-31T09:48:56.494Z,38.72
2022-10-31T09:51:30.341Z,38.97
2022-10-31T09:54:00.258Z,40.60
2022-10-31T09:56:32.803Z,39.53
2022-10-31T09:59:03.542Z,40.10
2022-10-31T10:01:40.067Z,40.13
2022-10-31T10:04:25.947Z,44.38
2022-10-31T10:06:54.734Z,43.67
2022-10-31T10:09:27.235Z,36.40
2022-10-31T10:12:09.261Z,37.92
2022-10-31T10:14:49.500Z,36.67
2022-10-31T10:17:34.880Z,35.28
2022-10-31T10:20:20.580Z,33.88
2022-10-31T10:22:56.701Z,33.63
2022-10-31T10:25:27.761Z,33.08
2022-10-31T10:28:11.053Z,35.90
2022-10-31T10:30:43.828Z,36.22
2022-10-31T10:33:15.690Z,33.97
2022-10-31T10:35:49.351Z,34.15
2022-10-31T10:38:24.255Z,31.77
2022-10-31T10:40:54.841Z,28.48
2022-10-31T10:43:28.345Z,28.83
2022-10-31T10:46:24.997Z,29.08
2022-10-31T10:49:00.225Z,32.25
2022-10-31T10:54:42.102Z,28.52
2022-10-31T10:57:26.054Z,29.75
2022-10-31T10:59:55.653Z,27.25
2022-10-31T11:02:27.249Z,27.15
2022-10-31T11:04:58.564Z,25.45
2022-10-31T11:07:27.802Z,23.73
2022-10-31T11:10:06.373Z,21.20
2022-10-31T11:12:35.808Z,17.83
2022-10-31T11:15:22.199Z,17.23
2022-10-31T11:17:52.902Z,14.48
2022-10-31T11:20:33.484Z,16.20
2022-10-31T11:23:15.785Z,14.32
2022-10-31T11:25:51.711Z,13.57
2022-10-31T11:28:20.132Z,14.18
2022-10-31T11:30:53.582Z,13.95
2022-10-31T11:33:26.692Z,13.40
2022-10-31T11:35:58.122Z,13.00
2022-10-31T11:38:33.723Z,12.85
2022-10-31T11:41:18.128Z,11.75
2022-10-31T11:43:51.657Z,10.70
2022-10-31T11:46:27.911Z,12.20
2022-10-31T11:48:57.981Z,12.35
2022-10-31T11:51:32.533Z,11.80
2022-10-31T11:54:03.582Z,11.10
2022-10-31T11:56:41.452Z,11.98
2022-10-31T11:59:24.673Z,11.90
2022-10-31T12:01:56.537Z,11.68
2022-10-31T12:04:37.875Z,12.50
2022-10-31T12:07:06.211Z,12.60
2022-10-31T12:09:39.459Z,12.32
2022-10-31T12:12:49.454Z,11.52
2022-10-31T12:15:31.402Z,11.27
2022-10-31T12:18:19.421Z,12.18
2022-10-31T12:21:00.358Z,10.88
2022-10-31T12:23:37.086Z,11.30
2022-10-31T12:26:17.204Z,10.13
2022-10-31T12:29:03.243Z,10.77
2022-10-31T12:31:49.134Z,10.98
2022-10-31T12:34:49.006Z,12.70
2022-10-31T12:37:29.172Z,10.38
2022-10-31T12:40:17.788Z,10.00
2022-10-31T12:42:55.684Z,9.60
2022-10-31T12:45:49.558Z,10.93
2022-10-31T12:48:38.651Z,10.23
2022-10-31T12:51:14.296Z,9.25
2022-10-31T12:53:54.800Z,9.10
2022-10-31T12:56:40.091Z,9.45
2022-10-31T12:59:23.815Z,9.07
2022-10-31T13:01:57.970Z,9.00
2022-10-31T13:04:37.371Z,9.82
2022-10-31T13:07:11.938Z,9.15
2022-10-31T13:09:47.242Z,9.05
2022-10-31T13:12:20.248Z,8.40
2022-10-31T13:14:52.604Z,8.70
2022-10-31T13:17:26.516Z,9.30
2022-10-31T13:20:00.051Z,8.55
2022-10-31T13:22:36.653Z,9.88
2022-10-31T13:25:17.511Z,10.32
2022-10-31T13:27:51.488Z,10.15
2022-10-31T13:30:22.232Z,10.82
2022-10-31T13:32:55.453Z,9.10
2022-10-31T13:35:32.565Z,10.68
2022-10-31T13:38:12.358Z,9.48
2022-10-31T13:40:49.599Z,10.50
2022-10-31T13:43:28.946Z,10.57
2022-10-31T13:45:58.003Z,10.93
2022-10-31T13:48:40.079Z,10.63
2022-10-31T13:51:12.050Z,10.05
2022-10-31T13:53:45.851Z,8.90
2022-10-31T13:56:23.280Z,11.27
2022-10-31T13:59:07.673Z,10.90
2022-10-31T14:01:37.583Z,10.77
2022-10-31T14:04:14.535Z,11.45
2022-10-31T14:07:02.073Z,11.45
2022-10-31T14:09:36.017Z,11.63
2022-10-31T14:12:08.046Z,11.25
2022-10-31T14:14:45.901Z,10.95
2022-10-31T14:17:22.519Z,11.00
2022-10-31T14:20:20.632Z,12.07
2022-10-31T14:22:48.988Z,10.95
2022-10-31T14:25:31.521Z,10.95
2022-10-31T14:28:01.600Z,11.45
2022-10-31T14:30:32.430Z,8.63
2022-10-31T14:33:04.764Z,11.30
2022-10-31T14:35:48.957Z,11.07
2022-10-31T14:38:53.477Z,11.25
2022-10-31T14:41:39.940Z,11.75
2022-10-31T14:44:43.438Z,12.55
2022-10-31T14:47:21.033Z,12.73
2022-10-31T14:50:22.084Z,11.68
2022-10-31T14:52:54.473Z,12.05
2022-10-31T14:55:24.918Z,12.50
2022-10-31T14:57:57.904Z,11.45
2022-10-31T15:00:26.829Z,13.30
2022-10-31T15:03:05.302Z,12.75
2022-10-31T15:05:36.353Z,11.57
2022-10-31T15:08:04.967Z,13.23
2022-10-31T15:10:36.209Z,13.30
2022-10-31T15:13:19.873Z,12.25
2022-10-31T15:15:52.295Z,13.13
2022-10-31T15:18:27.048Z,12.27
2022-10-31T15:20:57.161Z,13.30
2022-10-31T15:23:28.508Z,12.43
2022-10-31T15:26:06.924Z,12.45
2022-10-31T15:28:36.516Z,13.20
2022-10-31T15:31:05.236Z,12.63
2022-10-31T15:33:48.345Z,13.95
2022-10-31T15:36:17.731Z,13.82
2022-10-31T15:38:46.045Z,12.80
2022-10-31T15:41:30.818Z,14.00
2022-10-31T15:44:05.518Z,13.15
2022-10-31T15:46:34.877Z,14.63
2022-10-31T15:49:03.378Z,13.80
2022-10-31T15:51:35.119Z,14.98
2022-10-31T15:54:03.702Z,15.35
2022-10-31T15:56:33.701Z,14.55
2022-10-31T15:59:04.105Z,15.07
2022-10-31T16:01:34.216Z,14.57
2022-10-31T16:04:06.258Z,14.85
2022-10-31T16:06:36.309Z,15.98
2022-10-31T16:09:06.264Z,15.88
2022-10-31T16:11:37.815Z,15.38
2022-10-31T16:14:18.487Z,14.70
2022-10-31T16:16:50.647Z,16.88
2022-10-31T16:19:23.678Z,16.42
2022-10-31T16:21:56.331Z,14.95
2022-10-31T16:24:29.962Z,15.70
2022-10-31T16:27:05.797Z,15.85
2022-10-31T16:29:43.565Z,15.25
2022-10-31T16:32:27.866Z,15.73
2022-10-31T16:35:18.516Z,15.07
2022-10-31T16:37:47.096Z,15.52
2022-10-31T16:40:16.644Z,16.23
2022-10-31T16:42:48.292Z,14.77
2022-10-31T16:45:20.252Z,15.75
2022-10-31T16:47:49.360Z,15.60
2022-10-31T16:50:23.448Z,15.95
2022-10-31T16:55:46.611Z,23.30
2022-10-31T16:58:21.221Z,19.40
2022-10-31T17:00:51.743Z,17.75
2022-10-31T17:03:20.075Z,18.33
2022-10-31T17:05:48.373Z,16.15
2022-10-31T17:08:17.104Z,15.55
2022-10-31T17:10:47.218Z,13.52
2022-10-31T17:13:20.741Z,14.40
2022-10-31T17:15:53.215Z,14.05
2022-10-31T17:18:27.096Z,15.57
2022-10-31T17:20:59.704Z,15.27
2022-10-31T17:23:29.323Z,18.45
2022-10-31T17:25:58.191Z,16.10
2022-10-31T17:28:26.859Z,12.63
2022-10-31T17:30:59.119Z,11.57
2022-10-31T17:33:27.892Z,11.43
2022-10-31T17:35:56.243Z,11.02
2022-10-31T17:38:24.609Z,11.35
2022-10-31T17:40:52.908Z,11.57
2022-10-31T17:43:21.160Z,12.68
2022-10-31T17:45:49.458Z,12.73
2022-10-31T17:48:19.040Z,11.93
2022-10-31T17:50:47.282Z,12.13
2022-10-31T17:53:15.537Z,13.23
2022-10-31T17:55:43.769Z,13.25
2022-10-31T17:58:13.830Z,12.48
2022-10-31T18:00:45.830Z,10.48
2022-10-31T18:03:18.478Z,10.20
2022-10-31T18:05:53.531Z,17.50
2022-10-31T18:08:25.399Z,13.63
2022-10-31T18:10:53.721Z,12.80
2022-10-31T18:13:22.095Z,10.75
2022-10-31T18:15:50.605Z,12.27
2022-10-31T18:18:20.330Z,16.08
2022-10-31T18:20:48.556Z,18.23
2022-10-31T18:23:16.816Z,18.83
2022-10-31T18:25:45.146Z,16.67
2022-10-31T18:28:13.343Z,15.00
2022-10-31T18:30:42.427Z,17.52
2022-10-31T18:33:10.683Z,17.92
2022-10-31T18:35:40.877Z,15.45
2022-10-31T18:38:09.827Z,13.73
2022-10-31T18:40:38.361Z,15.27
2022-10-31T18:43:07.160Z,11.75
2022-10-31T18:45:46.599Z,12.70
2022-10-31T18:48:17.299Z,8.93
2022-10-31T18:50:46.995Z,10.85
2022-10-31T18:53:15.238Z,8.77
2022-10-31T18:55:47.492Z,9.95
2022-10-31T18:58:18.658Z,8.82
2022-10-31T19:00:47.483Z,9.13
2022-10-31T19:03:16.114Z,8.95
2022-10-31T19:05:44.386Z,8.63
2022-10-31T19:08:14.014Z,7.53
2022-10-31T19:10:42.958Z,6.50
2022-10-31T19:13:11.208Z,6.15
2022-10-31T19:15:39.573Z,8.15
2022-10-31T19:18:07.930Z,8.02
2022-10-31T19:20:39.172Z,6.05
2022-10-31T19:23:07.744Z,6.32
2022-10-31T19:25:38.048Z,10.10
2022-10-31T19:28:06.670Z,9.02
2022-10-31T19:30:34.920Z,9.82
2022-10-31T19:33:03.264Z,6.75
2022-10-31T19:35:31.597Z,8.10
2022-10-31T19:38:00.208Z,8.27
2022-10-31T19:40:28.777Z,6.38
2022-10-31T19:43:00.184Z,6.15
2022-10-31T19:45:28.456Z,7.15
2022-10-31T19:47:56.755Z,5.80
2022-10-31T19:50:25.190Z,5.40
2022-10-31T19:52:53.423Z,5.70
2022-10-31T19:55:21.719Z,5.90
2022-10-31T19:58:01.435Z,4.22
2022-10-31T20:00:31.931Z,4.78
2022-10-31T20:03:00.939Z,5.03
2022-10-31T20:05:29.765Z,5.53
2022-10-31T20:07:58.135Z,6.35
2022-10-31T20:10:26.468Z,7.53
2022-10-31T20:12:54.728Z,8.38
2022-10-31T20:15:23.151Z,7.13
2022-10-31T20:17:52.809Z,5.90
2022-10-31T20:20:21.333Z,6.40
2022-10-31T20:22:50.688Z,5.82
2022-10-31T20:25:19.324Z,4.30
2022-10-31T20:27:47.736Z,4.30
2022-10-31T20:30:16.188Z,4.20
2022-10-31T20:32:49.015Z,3.60
2022-10-31T20:35:20.105Z,4.38
2022-10-31T20:37:48.357Z,4.07
2022-10-31T20:40:16.781Z,3.83
2022-10-31T20:42:45.070Z,3.88
2022-10-31T20:45:13.437Z,4.93
2022-10-31T20:47:41.742Z,4.10
2022-10-31T20:50:10.371Z,4.20
2022-10-31T20:52:40.635Z,4.65
2022-10-31T20:55:09.711Z,5.05
2022-10-31T20:57:38.117Z,4.95
2022-10-31T21:00:08.003Z,4.82
2022-10-31T21:02:36.325Z,4.63
2022-10-31T21:05:08.443Z,4.60
2022-10-31T21:07:36.856Z,6.45
2022-10-31T21:10:14.920Z,4.72
2022-10-31T21:12:44.884Z,4.13
2022-10-31T21:15:15.189Z,5.15
2022-10-31T21:17:43.894Z,4.70
2022-10-31T21:20:12.424Z,4.93
2022-10-31T21:22:40.895Z,5.15
2022-10-31T21:25:10.680Z,5.60
2022-10-31T21:27:38.992Z,4.82
2022-10-31T21:30:08.209Z,5.85
2022-10-31T21:32:36.546Z,4.82
2022-10-31T21:39:10.434Z,4.15
2022-10-31T21:42:46.586Z,4.28
2022-10-31T21:52:13.895Z,4.28
2022-10-31T21:54:42.103Z,5.35
2022-10-31T21:57:11.698Z,3.95
2022-10-31T21:59:41.361Z,4.40
2022-10-31T22:02:12.034Z,3.92
2022-10-31T22:04:41.300Z,4.43
2022-10-31T22:07:09.723Z,4.78
2022-10-31T22:09:38.903Z,4.10
2022-10-31T22:12:09.109Z,4.35
2022-10-31T22:14:38.709Z,3.30
2022-10-31T22:17:06.993Z,3.95
2022-10-31T22:19:35.385Z,3.58
2022-10-31T22:22:03.703Z,2.72
2022-10-31T22:24:31.957Z,3.00
2022-10-31T22:27:00.122Z,3.17
2022-10-31T22:29:28.891Z,3.42
2022-10-31T22:31:59.720Z,3.00
2022-10-31T22:34:28.985Z,3.70
2022-10-31T22:36:57.550Z,3.22
2022-10-31T22:39:25.773Z,3.53
2022-10-31T22:41:54.049Z,3.95
2022-10-31T22:44:22.359Z,3.70
2022-10-31T22:46:50.684Z,3.55
2022-10-31T22:49:20.408Z,4.30
2022-10-31T22:51:52.049Z,3.83
2022-10-31T22:54:20.444Z,3.38
2022-10-31T22:56:48.831Z,3.90
2022-10-31T22:59:18.046Z,2.67
2022-10-31T23:01:46.710Z,2.95
2022-10-31T23:04:16.261Z,3.15
2022-10-31T23:06:46.413Z,2.55
2022-10-31T23:09:16.419Z,2.10
2022-10-31T23:11:45.173Z,2.90
2022-10-31T23:14:18.590Z,3.33
2022-10-31T23:16:48.997Z,3.10
2022-10-31T23:19:19.454Z,3.20
2022-10-31T23:21:59.497Z,1.88
2022-10-31T23:24:30.702Z,2.95
2022-10-31T23:27:10.724Z,2.03
2022-10-31T23:29:43.301Z,2.45
2022-10-31T23:32:18.593Z,2.70
2022-10-31T23:34:47.809Z,3.33
2022-10-31T23:37:19.320Z,3.67
2022-10-31T23:39:48.792Z,2.65
2022-10-31T23:42:17.594Z,3.65
2022-10-31T23:44:46.874Z,3.45
2022-10-31T23:47:16.953Z,3.83
2022-10-31T23:49:45.150Z,2.72
2022-10-31T23:52:14.409Z,2.67
2022-10-31T23:54:44.331Z,3.28
2022-10-31T23:57:15.496Z,2.78
2022-10-31T23:59:44.056Z,3.42
